Time;durP1;ratioP1;P1;durP2;ratioP2;P2;SDS_P1;SDS_P2;PMS_P1;PMS_P2;Temp;Humidity;BMP_temperature;BMP_pressure;BME280_temperature;BME280_humidity;BME280_pressure;Samples;Min_cycle;Max_cycle;Signal;HPM_P1;HPM_P2
2023/01/24 00:01:00;;;;;;;;;;;3.40;99.90;;;;;;5007244;28;19914;-66
2023/01/24 00:03:26;;;;;;;;;;;3.40;99.90;;;;;;5007405;28;20406;-66
2023/01/24 00:05:51;;;;;;;;;;;3.40;99.90;;;;;;5007585;28;19918;-66
2023/01/24 00:08:19;;;;;;;;;;;3.30;99.90;;;;;;4989822;28;19949;-66
2023/01/24 00:10:44;;;;;;;;;;;3.30;99.90;;;;;;5007306;28;19909;-66
2023/01/24 00:13:11;;;;;;;;;;;3.30;99.90;;;;;;4989601;28;19952;-66
2023/01/24 00:15:36;;;;;;;;;;;3.30;99.90;;;;;;5006732;28;19921;-66
2023/01/24 00:18:02;;;;;;;;;;;3.30;99.90;;;;;;5007362;28;19917;-66
2023/01/24 00:20:27;;;;;;;;;;;3.30;99.90;;;;;;5006844;28;19924;-66
2023/01/24 00:22:53;;;;;;;;;;;3.30;99.90;;;;;;5007357;28;19914;-67
2023/01/24 00:25:18;;;;;;;;;;;3.30;99.90;;;;;;5007294;28;20578;-66
2023/01/24 00:27:44;;;;;;;;;;;3.30;99.90;;;;;;5007470;28;20004;-66
2023/01/24 00:30:10;;;;;;;;;;;3.30;99.90;;;;;;5006987;28;20314;-66
2023/01/24 00:32:35;;;;;;;;;;;3.30;99.90;;;;;;5006809;28;20005;-66
2023/01/24 00:35:00;;;;;;;;;;;3.30;99.90;;;;;;5005878;28;19917;-66
2023/01/24 00:37:26;;;;;;;;;;;3.30;99.90;;;;;;4989006;28;20656;-66
2023/01/24 00:39:51;;;;;;;;;;;3.30;99.90;;;;;;5006830;28;19971;-66
2023/01/24 00:42:17;;;;;;;;;;;3.30;99.90;;;;;;5000674;28;19909;-66
2023/01/24 00:44:42;;;;;;;;;;;3.30;99.90;;;;;;5005718;28;19942;-66
2023/01/24 00:47:08;;;;;;;;;;;3.30;99.90;;;;;;5003100;28;20283;-66
2023/01/24 00:49:33;;;;;;;;;;;3.30;99.90;;;;;;5006584;28;19980;-66
2023/01/24 00:51:59;;;;;;;;;;;3.30;99.90;;;;;;5006409;28;19945;-66
2023/01/24 00:54:24;;;;;;;;;;;3.30;99.90;;;;;;5007002;28;20318;-66
2023/01/24 00:56:50;;;;;;;;;;;3.30;99.90;;;;;;5007131;28;19937;-66
2023/01/24 00:59:15;;;;;;;;;;;3.30;99.90;;;;;;5007052;28;20562;-66
2023/01/24 01:01:41;;;;;;;;;;;3.30;99.90;;;;;;5006718;28;19917;-66
2023/01/24 01:04:06;;;;;;;;;;;3.30;99.90;;;;;;5006999;28;19913;-66
2023/01/24 01:06:32;;;;;;;;;;;3.30;99.90;;;;;;5006803;28;19913;-66
2023/01/24 01:08:57;;;;;;;;;;;3.30;99.90;;;;;;4988555;28;19913;-66
2023/01/24 01:11:23;;;;;;;;;;;3.30;99.90;;;;;;5006499;28;19948;-66
2023/01/24 01:13:48;;;;;;;;;;;3.30;99.90;;;;;;5006991;28;19924;-66
2023/01/24 01:16:18;;;;;;;;;;;3.30;99.90;;;;;;5006951;28;19921;-66
2023/01/24 01:18:45;;;;;;;;;;;3.30;99.90;;;;;;4999621;28;19996;-66
2023/01/24 01:21:12;;;;;;;;;;;3.30;99.90;;;;;;5004066;28;19914;-66
2023/01/24 01:23:37;;;;;;;;;;;3.30;99.90;;;;;;4989368;28;20554;-66
2023/01/24 01:26:04;;;;;;;;;;;3.30;99.90;;;;;;5006128;28;19921;-66
2023/01/24 01:28:30;;;;;;;;;;;3.30;99.90;;;;;;4988707;28;19910;-66
2023/01/24 01:30:55;;;;;;;;;;;3.30;99.90;;;;;;5004034;28;19917;-66
2023/01/24 01:33:21;;;;;;;;;;;3.30;99.90;;;;;;5005772;28;19916;-66
2023/01/24 01:35:48;;;;;;;;;;;3.30;99.90;;;;;;5006453;28;19914;-66
2023/01/24 01:38:13;;;;;;;;;;;3.30;99.90;;;;;;5006597;28;20720;-66
2023/01/24 01:40:38;;;;;;;;;;;3.30;99.90;;;;;;5005715;28;19917;-66
2023/01/24 01:43:05;;;;;;;;;;;3.30;99.90;;;;;;5000172;28;19940;-66
2023/01/24 01:45:30;;;;;;;;;;;3.30;99.90;;;;;;4988044;28;19938;-66
2023/01/24 01:47:56;;;;;;;;;;;3.30;99.90;;;;;;4986490;28;19957;-66
2023/01/24 01:50:33;;;;;;;;;;;3.30;99.90;;;;;;4997192;28;19922;-66
2023/01/24 01:52:58;;;;;;;;;;;3.30;99.90;;;;;;5006674;28;19918;-66
2023/01/24 01:55:25;;;;;;;;;;;3.20;99.90;;;;;;5004792;28;19921;-66
2023/01/24 01:57:51;;;;;;;;;;;3.30;99.90;;;;;;5008545;28;19921;-66
2023/01/24 02:00:18;;;;;;;;;;;3.30;99.90;;;;;;5009757;28;19909;-66
2023/01/24 02:02:46;;;;;;;;;;;3.30;99.90;;;;;;5010026;28;19913;-67
2023/01/24 02:05:13;;;;;;;;;;;3.30;99.90;;;;;;5009170;28;19914;-66
2023/01/24 02:07:44;;;;;;;;;;;3.30;99.90;;;;;;5009988;28;19913;-66
2023/01/24 02:10:10;;;;;;;;;;;3.30;99.90;;;;;;5009812;28;20377;-66
2023/01/24 02:12:38;;;;;;;;;;;3.30;99.90;;;;;;5009882;28;20087;-66
2023/01/24 02:17:55;;;;;;;;;;;3.30;99.90;;;;;;5010326;28;20325;-66
2023/01/24 02:20:35;;;;;;;;;;;3.30;99.90;;;;;;5009803;28;19910;-66
2023/01/24 02:23:13;;;;;;;;;;;3.30;99.90;;;;;;5009904;28;19920;-67
2023/01/24 02:25:41;;;;;;;;;;;3.30;99.90;;;;;;5009227;28;19917;-66
2023/01/24 02:28:07;;;;;;;;;;;3.30;99.90;;;;;;5009659;28;20374;-66
2023/01/24 02:30:34;;;;;;;;;;;3.20;99.90;;;;;;5009151;28;19913;-66
2023/01/24 02:33:08;;;;;;;;;;;3.30;99.90;;;;;;5021008;28;20428;-66
2023/01/24 02:35:34;;;;;;;;;;;3.20;99.90;;;;;;5029337;28;20429;-66
2023/01/24 02:38:00;;;;;;;;;;;3.30;99.90;;;;;;5011520;28;19909;-66
2023/01/24 02:40:27;;;;;;;;;;;3.20;99.90;;;;;;5028742;28;19932;-66
2023/01/24 02:42:53;;;;;;;;;;;3.30;99.90;;;;;;5003796;28;19921;-66
2023/01/24 02:45:21;;;;;;;;;;;3.20;99.90;;;;;;5009207;28;19948;-66
2023/01/24 02:47:49;;;;;;;;;;;3.20;99.90;;;;;;5009408;28;19920;-66
2023/01/24 02:50:18;;;;;;;;;;;3.20;99.90;;;;;;4991681;28;19913;-66
2023/01/24 02:55:28;;;;;;;;;;;3.20;99.90;;;;;;5009386;28;19929;-66
2023/01/24 02:58:06;;;;;;;;;;;3.20;99.90;;;;;;5009444;28;20363;-67
2023/01/24 03:00:33;;;;;;;;;;;3.20;99.90;;;;;;4990817;28;19920;-66
2023/01/24 03:02:58;;;;;;;;;;;3.20;99.90;;;;;;5009106;28;19913;-66
2023/01/24 03:05:24;;;;;;;;;;;3.20;99.90;;;;;;5008849;28;19914;-66
2023/01/24 03:07:49;;;;;;;;;;;3.20;99.90;;;;;;5009269;28;20400;-66
2023/01/24 03:10:16;;;;;;;;;;;3.20;99.90;;;;;;5007773;28;19939;-66
2023/01/24 03:34:48;;;;;;;;;;;3.20;99.90;;;;;;5007770;28;20413;-66
2023/01/24 03:37:15;;;;;;;;;;;3.20;99.90;;;;;;5008846;28;19920;-66
2023/01/24 03:39:53;;;;;;;;;;;3.10;99.90;;;;;;5007611;28;19913;-66
2023/01/24 03:42:19;;;;;;;;;;;3.20;99.90;;;;;;5007881;28;19921;-66
2023/01/24 03:44:44;;;;;;;;;;;3.20;99.90;;;;;;5008360;28;19917;-66
2023/01/24 03:47:09;;;;;;;;;;;3.20;99.90;;;;;;5008023;28;20496;-66
2023/01/24 03:52:28;;;;;;;;;;;3.20;99.90;;;;;;5008641;28;19923;-66
2023/01/24 03:54:57;;;;;;;;;;;3.20;99.90;;;;;;5008225;28;19925;-66
2023/01/24 03:57:23;;;;;;;;;;;3.20;99.90;;;;;;5007965;28;19917;-66
2023/01/24 03:59:48;;;;;;;;;;;3.20;99.90;;;;;;5008011;28;20271;-66
2023/01/24 04:02:14;;;;;;;;;;;3.10;99.90;;;;;;5007052;28;20270;-66
2023/01/24 04:07:24;;;;;;;;;;;3.20;99.90;;;;;;5008363;28;19967;-66
2023/01/24 04:09:49;;;;;;;;;;;3.20;99.90;;;;;;4990327;28;19910;-66
2023/01/24 04:12:16;;;;;;;;;;;3.20;99.90;;;;;;5008063;28;19917;-66
2023/01/24 04:14:42;;;;;;;;;;;3.20;99.90;;;;;;5007944;28;20347;-66
2023/01/24 04:17:08;;;;;;;;;;;3.20;99.90;;;;;;5007962;28;19936;-66
2023/01/24 04:19:34;;;;;;;;;;;3.20;99.90;;;;;;4996744;28;19914;-66
2023/01/24 04:21:59;;;;;;;;;;;3.10;99.90;;;;;;5007466;28;20298;-66
2023/01/24 04:24:25;;;;;;;;;;;3.20;99.90;;;;;;5007160;28;19909;-66
2023/01/24 04:26:50;;;;;;;;;;;3.20;99.90;;;;;;5007756;28;19970;-66
2023/01/24 04:29:15;;;;;;;;;;;3.10;99.90;;;;;;5007917;28;19921;-66
2023/01/24 04:31:41;;;;;;;;;;;3.10;99.90;;;;;;5007592;28;20350;-66
2023/01/24 04:34:06;;;;;;;;;;;3.10;99.90;;;;;;5007853;28;19917;-66
2023/01/24 04:36:32;;;;;;;;;;;3.20;99.90;;;;;;5007130;28;19914;-66
2023/01/24 04:38:58;;;;;;;;;;;3.10;99.90;;;;;;5007077;28;19960;-66
2023/01/24 04:41:23;;;;;;;;;;;3.10;99.90;;;;;;5001071;28;19921;-66
2023/01/24 04:43:49;;;;;;;;;;;3.10;99.90;;;;;;5007041;28;19921;-66
2023/01/24 04:46:15;;;;;;;;;;;3.10;99.90;;;;;;5007637;28;19913;-66
2023/01/24 04:48:40;;;;;;;;;;;3.10;99.90;;;;;;5007441;28;19909;-66
2023/01/24 04:51:05;;;;;;;;;;;3.10;99.90;;;;;;5006360;28;19925;-66
2023/01/24 04:53:31;;;;;;;;;;;3.10;99.90;;;;;;5003965;28;19913;-66
2023/01/24 04:56:01;;;;;;;;;;;3.10;99.90;;;;;;5006524;28;19963;-66
2023/01/24 04:58:26;;;;;;;;;;;3.10;99.80;;;;;;5005826;28;19972;-66
2023/01/24 05:00:52;;;;;;;;;;;3.10;99.80;;;;;;5006211;28;19917;-66
2023/01/24 05:03:17;;;;;;;;;;;3.10;99.90;;;;;;5007611;28;20016;-66
2023/01/24 05:05:43;;;;;;;;;;;3.10;99.90;;;;;;5007312;28;20625;-66
2023/01/24 05:08:08;;;;;;;;;;;3.10;99.90;;;;;;5007448;28;19925;-66
2023/01/24 05:10:34;;;;;;;;;;;3.10;99.90;;;;;;5006874;28;20409;-66
2023/01/24 05:12:59;;;;;;;;;;;3.10;99.90;;;;;;5007492;28;19917;-67
2023/01/24 05:15:25;;;;;;;;;;;3.10;99.80;;;;;;5006975;28;20451;-66
2023/01/24 05:17:51;;;;;;;;;;;3.10;99.90;;;;;;5007380;28;20318;-66
2023/01/24 05:20:17;;;;;;;;;;;3.10;99.90;;;;;;4997373;28;19921;-66
2023/01/24 05:22:46;;;;;;;;;;;3.10;99.90;;;;;;5007227;28;19913;-67
2023/01/24 05:25:13;;;;;;;;;;;3.10;99.90;;;;;;5007348;28;19913;-66
2023/01/24 05:27:40;;;;;;;;;;;3.10;99.90;;;;;;5007140;28;19917;-66
2023/01/24 05:30:05;;;;;;;;;;;3.10;99.90;;;;;;5006719;28;19949;-66
2023/01/24 05:32:31;;;;;;;;;;;3.10;99.90;;;;;;5008307;28;19960;-67
2023/01/24 05:34:56;;;;;;;;;;;3.10;99.90;;;;;;5010816;28;20412;-66
2023/01/24 05:37:22;;;;;;;;;;;3.10;99.90;;;;;;5010569;28;19925;-66
2023/01/24 05:39:47;;;;;;;;;;;3.10;99.90;;;;;;5010451;28;19913;-66
2023/01/24 05:42:13;;;;;;;;;;;3.10;99.90;;;;;;5005032;28;19922;-66
2023/01/24 05:44:38;;;;;;;;;;;3.10;99.90;;;;;;4998291;28;19918;-66
2023/01/24 05:47:04;;;;;;;;;;;3.10;99.90;;;;;;4990773;28;19945;-66
2023/01/24 05:49:29;;;;;;;;;;;3.10;99.90;;;;;;4999594;28;19984;-66
2023/01/24 05:51:55;;;;;;;;;;;3.10;99.90;;;;;;5002202;28;19913;-66
2023/01/24 05:54:20;;;;;;;;;;;3.10;99.90;;;;;;5000665;28;19980;-66
2023/01/24 05:56:46;;;;;;;;;;;3.10;99.90;;;;;;5002544;28;19914;-66
2023/01/24 05:59:13;;;;;;;;;;;3.10;99.90;;;;;;5010709;28;19914;-66
2023/01/24 06:01:39;;;;;;;;;;;3.10;99.90;;;;;;5010200;28;20329;-66
2023/01/24 06:04:04;;;;;;;;;;;3.10;99.90;;;;;;5009497;28;19910;-66
2023/01/24 06:06:30;;;;;;;;;;;3.10;99.90;;;;;;5009927;28;19964;-66
2023/01/24 06:08:55;;;;;;;;;;;3.10;99.90;;;;;;5010140;28;19913;-66
2023/01/24 06:11:23;;;;;;;;;;;3.10;99.90;;;;;;5009811;28;19936;-66
2023/01/24 06:13:48;;;;;;;;;;;3.10;99.90;;;;;;5009984;28;19952;-67
2023/01/24 06:16:15;;;;;;;;;;;3.10;99.90;;;;;;5009850;28;20350;-66
2023/01/24 06:18:41;;;;;;;;;;;3.10;99.90;;;;;;5003334;28;19909;-66
2023/01/24 06:21:07;;;;;;;;;;;3.10;99.90;;;;;;4988490;28;19914;-66
2023/01/24 06:23:32;;;;;;;;;;;3.10;99.90;;;;;;5009730;28;20410;-66
2023/01/24 06:25:58;;;;;;;;;;;3.10;99.90;;;;;;5009662;28;19913;-66
2023/01/24 06:28:23;;;;;;;;;;;3.10;99.90;;;;;;5008410;28;19921;-66
2023/01/24 06:31:18;;;;;;;;;;;3.10;99.90;;;;;;5009327;28;20366;-66
2023/01/24 06:33:56;;;;;;;;;;;3.10;99.90;;;;;;4972951;28;19920;-67
2023/01/24 06:36:35;;;;;;;;;;;3.10;99.90;;;;;;4989927;28;19914;-66
2023/01/24 06:39:01;;;;;;;;;;;3.10;99.90;;;;;;4972688;28;19914;-66
2023/01/24 06:41:27;;;;;;;;;;;3.10;99.90;;;;;;4989353;28;20574;-66
2023/01/24 06:43:52;;;;;;;;;;;3.10;99.90;;;;;;5008958;28;19914;-66
2023/01/24 06:46:18;;;;;;;;;;;3.10;99.90;;;;;;4972530;28;19917;-66
2023/01/24 06:48:44;;;;;;;;;;;3.10;99.90;;;;;;5005323;28;19953;-66
2023/01/24 06:51:11;;;;;;;;;;;3.00;99.90;;;;;;5006445;28;19919;-66
2023/01/24 06:53:36;;;;;;;;;;;3.10;99.90;;;;;;5008940;28;20012;-66
2023/01/24 06:56:02;;;;;;;;;;;3.10;99.90;;;;;;5009374;28;20353;-66
2023/01/24 06:58:27;;;;;;;;;;;3.10;99.90;;;;;;5009416;28;19924;-66
2023/01/24 07:00:53;;;;;;;;;;;3.10;99.90;;;;;;5007061;28;20395;-66
2023/01/24 07:03:19;;;;;;;;;;;3.10;99.90;;;;;;5009047;28;19920;-67
2023/01/24 07:05:44;;;;;;;;;;;3.10;99.90;;;;;;5008780;28;20391;-66
2023/01/24 07:08:10;;;;;;;;;;;3.10;99.90;;;;;;5008899;28;19936;-66
2023/01/24 07:10:35;;;;;;;;;;;3.10;99.90;;;;;;5008517;28;19909;-67
2023/01/24 07:13:01;;;;;;;;;;;3.10;99.90;;;;;;5008835;28;19956;-66
2023/01/24 07:15:26;;;;;;;;;;;3.10;99.90;;;;;;5008506;28;19925;-67
2023/01/24 07:17:52;;;;;;;;;;;3.00;99.90;;;;;;5008288;28;19917;-66
2023/01/24 07:20:18;;;;;;;;;;;3.10;99.90;;;;;;4998702;28;19921;-68
2023/01/24 07:22:43;;;;;;;;;;;3.10;99.90;;;;;;5008384;28;19914;-67
2023/01/24 07:25:14;;;;;;;;;;;3.10;99.90;;;;;;5008763;28;19918;-66
2023/01/24 07:27:39;;;;;;;;;;;3.10;99.90;;;;;;5008321;28;19960;-66
2023/01/24 07:30:05;;;;;;;;;;;3.10;99.90;;;;;;5007976;28;19936;-66
2023/01/24 07:32:31;;;;;;;;;;;3.10;99.90;;;;;;5008579;28;20651;-66
2023/01/24 07:34:56;;;;;;;;;;;3.10;99.90;;;;;;5008700;28;19924;-66
2023/01/24 07:37:23;;;;;;;;;;;3.10;99.90;;;;;;5007983;28;19935;-66
2023/01/24 07:39:48;;;;;;;;;;;3.00;99.90;;;;;;5007809;28;19939;-66
2023/01/24 07:42:14;;;;;;;;;;;3.10;99.90;;;;;;5002734;28;20003;-66
2023/01/24 07:44:39;;;;;;;;;;;3.10;99.90;;;;;;5007560;28;20496;-66
2023/01/24 07:47:05;;;;;;;;;;;3.10;99.90;;;;;;4990107;28;19975;-66
2023/01/24 07:49:30;;;;;;;;;;;3.10;99.90;;;;;;5007843;28;19917;-67
2023/01/24 07:51:56;;;;;;;;;;;3.10;99.90;;;;;;5004280;28;19913;-66
2023/01/24 07:54:21;;;;;;;;;;;3.10;99.90;;;;;;5004406;28;19917;-66
2023/01/24 07:56:48;;;;;;;;;;;3.10;99.90;;;;;;5000252;28;19972;-66
2023/01/24 07:59:13;;;;;;;;;;;3.10;99.80;;;;;;5007847;28;19921;-66
2023/01/24 08:01:39;;;;;;;;;;;3.10;99.90;;;;;;5007392;28;20363;-66
2023/01/24 08:04:04;;;;;;;;;;;3.10;99.90;;;;;;5007887;28;20053;-66
2023/01/24 08:06:30;;;;;;;;;;;3.10;99.80;;;;;;5007796;28;19913;-66
2023/01/24 08:08:55;;;;;;;;;;;3.00;99.70;;;;;;5007698;28;19925;-66
2023/01/24 08:11:21;;;;;;;;;;;3.10;99.80;;;;;;5007652;28;19921;-66
2023/01/24 08:13:47;;;;;;;;;;;3.10;99.80;;;;;;5007430;28;20000;-66
2023/01/24 08:16:13;;;;;;;;;;;3.10;99.80;;;;;;5007586;28;20394;-66
2023/01/24 08:18:40;;;;;;;;;;;3.10;99.80;;;;;;5001041;28;19918;-66
2023/01/24 08:21:05;;;;;;;;;;;3.10;99.80;;;;;;5004030;28;20306;-66
2023/01/24 08:23:31;;;;;;;;;;;3.10;99.80;;;;;;5007724;28;19920;-66
2023/01/24 08:25:57;;;;;;;;;;;3.10;99.80;;;;;;5007633;28;19935;-66
2023/01/24 08:28:23;;;;;;;;;;;3.10;99.80;;;;;;5007758;28;20011;-66
2023/01/24 08:30:48;;;;;;;;;;;3.10;99.80;;;;;;5007293;28;20704;-67
2023/01/24 08:33:18;;;;;;;;;;;3.10;99.80;;;;;;5007493;28;20263;-66
2023/01/24 08:35:47;;;;;;;;;;;3.10;99.80;;;;;;5004853;28;19917;-66
2023/01/24 08:38:13;;;;;;;;;;;3.20;99.80;;;;;;4987893;28;19981;-66
2023/01/24 08:40:39;;;;;;;;;;;3.10;99.70;;;;;;4987570;28;19992;-67
2023/01/24 08:43:04;;;;;;;;;;;3.10;99.70;;;;;;4997533;28;19953;-66
2023/01/24 08:45:30;;;;;;;;;;;3.20;99.80;;;;;;4987494;28;19924;-66
2023/01/24 08:47:56;;;;;;;;;;;3.20;99.70;;;;;;4987574;28;19910;-66
2023/01/24 08:50:21;;;;;;;;;;;3.20;99.70;;;;;;4997768;28;20350;-67
2023/01/24 08:52:47;;;;;;;;;;;3.20;99.70;;;;;;5006617;28;20787;-66
2023/01/24 08:55:13;;;;;;;;;;;3.20;99.70;;;;;;5006578;28;19945;-66
2023/01/24 08:57:38;;;;;;;;;;;3.20;99.70;;;;;;5006546;28;19983;-66
2023/01/24 09:00:04;;;;;;;;;;;3.20;99.70;;;;;;5006038;28;19913;-66
2023/01/24 09:02:32;;;;;;;;;;;3.20;99.70;;;;;;5006618;28;19909;-66
2023/01/24 09:04:57;;;;;;;;;;;3.20;99.70;;;;;;5007521;28;19955;-66
2023/01/24 09:07:24;;;;;;;;;;;3.30;99.70;;;;;;5008845;28;20294;-66
2023/01/24 09:09:49;;;;;;;;;;;3.30;99.70;;;;;;5011191;28;20064;-67
2023/01/24 09:12:15;;;;;;;;;;;3.30;99.70;;;;;;5010974;28;20342;-66
2023/01/24 09:14:40;;;;;;;;;;;3.30;99.70;;;;;;5011377;28;19917;-67
2023/01/24 09:17:06;;;;;;;;;;;3.30;99.60;;;;;;5011153;28;19921;-66
2023/01/24 09:19:31;;;;;;;;;;;3.30;99.60;;;;;;5001069;28;19918;-67
2023/01/24 09:21:57;;;;;;;;;;;3.30;99.60;;;;;;5010716;28;19910;-67
2023/01/24 09:24:23;;;;;;;;;;;3.30;99.60;;;;;;5010930;28;19910;-66
2023/01/24 09:26:48;;;;;;;;;;;3.30;99.50;;;;;;5010715;28;19913;-66
2023/01/24 09:29:14;;;;;;;;;;;3.40;99.60;;;;;;5010361;28;19921;-66
2023/01/24 09:31:39;;;;;;;;;;;3.40;99.60;;;;;;5008917;28;19992;-66
2023/01/24 09:34:05;;;;;;;;;;;3.40;99.50;;;;;;5010760;28;19914;-66
2023/01/24 09:36:30;;;;;;;;;;;3.40;99.50;;;;;;5010495;28;19914;-66
2023/01/24 09:38:56;;;;;;;;;;;3.40;99.60;;;;;;5010516;28;20051;-67
2023/01/24 09:41:41;;;;;;;;;;;3.40;99.50;;;;;;5009762;28;20382;-66
2023/01/24 09:44:29;;;;;;;;;;;3.40;99.50;;;;;;5009670;28;19913;-66
2023/01/24 09:46:55;;;;;;;;;;;3.40;99.50;;;;;;5006307;28;19909;-66
2023/01/24 09:49:44;;;;;;;;;;;3.50;99.50;;;;;;5008770;28;19917;-66
2023/01/24 09:52:18;;;;;;;;;;;3.50;99.50;;;;;;5002424;28;19913;-66
2023/01/24 09:54:46;;;;;;;;;;;3.50;99.40;;;;;;5010104;28;19961;-66
2023/01/24 09:57:26;;;;;;;;;;;3.50;99.40;;;;;;4992550;28;20266;-66
2023/01/24 09:59:53;;;;;;;;;;;3.50;99.30;;;;;;5009865;28;20270;-66
2023/01/24 10:02:20;;;;;;;;;;;3.60;99.40;;;;;;5009897;28;20393;-66
2023/01/24 10:04:47;;;;;;;;;;;3.60;99.40;;;;;;5010301;28;20592;-66
2023/01/24 10:07:12;;;;;;;;;;;3.60;99.30;;;;;;5010120;28;19920;-67
2023/01/24 10:09:47;;;;;;;;;;;3.60;99.30;;;;;;5010013;28;19913;-67
2023/01/24 10:12:12;;;;;;;;;;;3.60;99.20;;;;;;5010076;28;19921;-67
2023/01/24 10:14:40;;;;;;;;;;;3.60;99.30;;;;;;5009592;28;19917;-66
2023/01/24 10:17:28;;;;;;;;;;;3.60;99.30;;;;;;5009549;28;19983;-67
2023/01/24 10:20:23;;;;;;;;;;;3.60;99.30;;;;;;4999142;28;19913;-67
2023/01/24 10:23:00;;;;;;;;;;;3.60;99.30;;;;;;4938404;28;19915;-67
2023/01/24 10:25:38;;;;;;;;;;;3.60;99.30;;;;;;5009665;28;19909;-66
2023/01/24 10:28:04;;;;;;;;;;;3.70;99.30;;;;;;5009697;28;19933;-67
2023/01/24 10:30:49;;;;;;;;;;;3.70;99.30;;;;;;5009024;28;20286;-66
2023/01/24 10:33:17;;;;;;;;;;;3.70;99.30;;;;;;5008668;28;19914;-66
2023/01/24 10:35:55;;;;;;;;;;;3.70;99.30;;;;;;5009370;28;19964;-66
2023/01/24 10:38:20;;;;;;;;;;;3.70;99.30;;;;;;5009650;28;19959;-67
2023/01/24 10:40:50;;;;;;;;;;;3.70;99.30;;;;;;5005899;28;20578;-66
2023/01/24 10:43:16;;;;;;;;;;;3.70;99.30;;;;;;4985193;28;19910;-66
2023/01/24 10:46:01;;;;;;;;;;;3.80;99.30;;;;;;5009342;28;19913;-66
2023/01/24 10:48:45;;;;;;;;;;;3.70;99.30;;;;;;5009181;28;20587;-66
2023/01/24 10:51:18;;;;;;;;;;;3.80;99.30;;;;;;5009135;28;19909;-66
2023/01/24 10:53:44;;;;;;;;;;;3.80;99.30;;;;;;4991638;28;20459;-66
2023/01/24 10:56:11;;;;;;;;;;;3.80;99.30;;;;;;5009192;28;19915;-67
2023/01/24 10:58:40;;;;;;;;;;;3.80;99.20;;;;;;5009160;28;19921;-66
2023/01/24 11:01:17;;;;;;;;;;;3.80;99.20;;;;;;5008462;28;20438;-66
2023/01/24 11:03:43;;;;;;;;;;;3.80;99.20;;;;;;5009249;28;19963;-66
2023/01/24 11:06:27;;;;;;;;;;;3.90;99.20;;;;;;5008885;28;19918;-66
2023/01/24 11:09:01;;;;;;;;;;;3.80;99.20;;;;;;5009088;28;20256;-66
2023/01/24 11:11:29;;;;;;;;;;;3.90;99.10;;;;;;5008329;28;19913;-66
2023/01/24 11:13:55;;;;;;;;;;;3.90;99.20;;;;;;5008790;28;19914;-67
2023/01/24 11:16:30;;;;;;;;;;;3.90;99.20;;;;;;5008518;28;19917;-66
2023/01/24 11:18:57;;;;;;;;;;;3.90;99.20;;;;;;4999915;28;19964;-66
2023/01/24 11:21:23;;;;;;;;;;;4.00;99.10;;;;;;5007298;28;19913;-66
2023/01/24 11:23:58;;;;;;;;;;;4.00;99.10;;;;;;5008733;28;20272;-66
2023/01/24 11:26:29;;;;;;;;;;;4.00;99.10;;;;;;5008521;28;20329;-66
2023/01/24 11:28:55;;;;;;;;;;;4.00;99.10;;;;;;5008383;28;19913;-66
2023/01/24 11:31:38;;;;;;;;;;;4.00;99.10;;;;;;5007354;28;19913;-66
2023/01/24 11:34:16;;;;;;;;;;;4.00;99.10;;;;;;5008293;28;19917;-66
2023/01/24 11:36:51;;;;;;;;;;;4.00;99.10;;;;;;5007844;28;19913;-66
2023/01/24 11:39:22;;;;;;;;;;;4.10;99.10;;;;;;5008435;28;19914;-66
2023/01/24 11:41:55;;;;;;;;;;;4.10;99.10;;;;;;5008003;28;19913;-66
2023/01/24 11:44:39;;;;;;;;;;;4.10;99.10;;;;;;5007850;28;20381;-66
2023/01/24 11:47:10;;;;;;;;;;;4.10;99.00;;;;;;5007995;28;19914;-66
2023/01/24 11:49:36;;;;;;;;;;;4.10;99.10;;;;;;5003327;28;19983;-66
2023/01/24 11:52:20;;;;;;;;;;;4.10;99.10;;;;;;5000655;28;20351;-66
2023/01/24 11:54:54;;;;;;;;;;;4.10;99.10;;;;;;4995168;28;19925;-67
2023/01/24 11:57:19;;;;;;;;;;;4.20;99.00;;;;;;4993706;28;20540;-66
2023/01/24 11:59:54;;;;;;;;;;;4.20;99.00;;;;;;5007986;28;19955;-66
2023/01/24 12:02:25;;;;;;;;;;;4.20;99.00;;;;;;5008064;28;19918;-66
2023/01/24 12:04:54;;;;;;;;;;;4.20;99.00;;;;;;5007801;28;19921;-66
2023/01/24 12:07:28;;;;;;;;;;;4.20;99.10;;;;;;5006086;28;19952;-67
2023/01/24 12:10:05;;;;;;;;;;;4.30;99.00;;;;;;5007537;28;19913;-66
2023/01/24 12:12:37;;;;;;;;;;;4.30;99.00;;;;;;4990257;28;19910;-66
2023/01/24 12:15:12;;;;;;;;;;;4.30;99.10;;;;;;5007764;28;19940;-66
2023/01/24 12:17:49;;;;;;;;;;;4.30;99.10;;;;;;5007398;28;20014;-67
2023/01/24 12:20:15;;;;;;;;;;;4.30;99.10;;;;;;5006950;28;19913;-66
2023/01/24 12:22:41;;;;;;;;;;;4.30;99.00;;;;;;5007390;28;19913;-66
2023/01/24 12:25:25;;;;;;;;;;;4.30;99.00;;;;;;4989792;28;19914;-66
2023/01/24 12:27:53;;;;;;;;;;;4.30;99.00;;;;;;5007432;28;19910;-67
2023/01/24 12:30:18;;;;;;;;;;;4.40;99.10;;;;;;5007135;28;20434;-67
2023/01/24 12:32:46;;;;;;;;;;;4.40;99.00;;;;;;4999522;28;20008;-66
2023/01/24 12:35:21;;;;;;;;;;;4.40;99.00;;;;;;4970222;28;20283;-66
2023/01/24 12:37:49;;;;;;;;;;;4.40;99.00;;;;;;4987722;28;19920;-67
2023/01/24 12:40:19;;;;;;;;;;;4.40;99.00;;;;;;4986271;28;19913;-66
2023/01/24 12:43:06;;;;;;;;;;;4.40;99.00;;;;;;5004227;28;19967;-66
2023/01/24 12:45:38;;;;;;;;;;;4.40;99.00;;;;;;5006888;28;19921;-66
2023/01/24 12:48:09;;;;;;;;;;;4.40;99.00;;;;;;5006903;28;19967;-66
2023/01/24 12:50:43;;;;;;;;;;;4.40;99.00;;;;;;5006979;28;20502;-66
2023/01/24 12:53:15;;;;;;;;;;;4.40;99.10;;;;;;5006964;28;19992;-67
2023/01/24 12:56:02;;;;;;;;;;;4.40;99.00;;;;;;5005482;28;20032;-67
2023/01/24 12:58:27;;;;;;;;;;;4.40;99.00;;;;;;5006834;28;19924;-66
2023/01/24 13:01:02;;;;;;;;;;;4.40;99.00;;;;;;5006466;28;19913;-66
2023/01/24 13:03:42;;;;;;;;;;;4.40;99.00;;;;;;5006006;28;20318;-67
2023/01/24 13:06:07;;;;;;;;;;;4.50;99.10;;;;;;5006488;28;20334;-67
2023/01/24 13:08:37;;;;;;;;;;;4.50;99.10;;;;;;5005978;28;20012;-66
2023/01/24 13:11:09;;;;;;;;;;;4.40;99.00;;;;;;5005227;28;20436;-66
2023/01/24 13:13:39;;;;;;;;;;;4.50;99.00;;;;;;4998140;28;19914;-66
2023/01/24 13:16:04;;;;;;;;;;;4.50;99.10;;;;;;4999709;28;19925;-66
2023/01/24 13:18:42;;;;;;;;;;;4.50;99.10;;;;;;5005663;28;19917;-66
2023/01/24 13:21:26;;;;;;;;;;;4.50;99.10;;;;;;5000637;28;19921;-66
2023/01/24 13:23:54;;;;;;;;;;;4.50;99.10;;;;;;4997598;28;19921;-66
2023/01/24 13:26:46;;;;;;;;;;;4.50;99.10;;;;;;4997717;28;19953;-66
2023/01/24 13:29:14;;;;;;;;;;;4.50;99.00;;;;;;4996165;28;20278;-66
2023/01/24 13:31:52;;;;;;;;;;;4.50;99.00;;;;;;4990625;28;19936;-66
2023/01/24 13:34:20;;;;;;;;;;;4.50;98.90;;;;;;5006667;28;19925;-67
2023/01/24 13:36:47;;;;;;;;;;;4.50;99.00;;;;;;5006758;28;20302;-66
2023/01/24 13:39:26;;;;;;;;;;;4.50;99.00;;;;;;5002500;28;20523;-66
2023/01/24 13:41:59;;;;;;;;;;;4.50;99.10;;;;;;5000945;28;19921;-66
2023/01/24 13:44:33;;;;;;;;;;;4.50;99.00;;;;;;4997747;28;19909;-66
2023/01/24 13:47:04;;;;;;;;;;;4.40;99.00;;;;;;5000174;28;19928;-66
2023/01/24 13:49:53;;;;;;;;;;;4.50;99.00;;;;;;4997189;28;19917;-67
2023/01/24 13:52:31;;;;;;;;;;;4.50;99.00;;;;;;5000606;28;20303;-66
2023/01/24 13:54:57;;;;;;;;;;;4.50;99.00;;;;;;5006512;28;20587;-66
2023/01/24 13:57:22;;;;;;;;;;;4.50;99.10;;;;;;5001452;28;19963;-66
2023/01/24 14:00:00;;;;;;;;;;;4.50;98.90;;;;;;5000290;28;20383;-67
2023/01/24 14:02:34;;;;;;;;;;;4.50;99.00;;;;;;5002006;28;19952;-67
2023/01/24 14:05:00;;;;;;;;;;;4.50;98.90;;;;;;5010007;28;19936;-66
2023/01/24 14:07:30;;;;;;;;;;;4.50;99.10;;;;;;5009861;28;20390;-67
2023/01/24 14:10:00;;;;;;;;;;;4.50;99.00;;;;;;5009504;28;19937;-67
2023/01/24 14:12:26;;;;;;;;;;;4.50;99.00;;;;;;5009260;28;19963;-66
2023/01/24 14:14:59;;;;;;;;;;;4.50;99.20;;;;;;5009917;28;19922;-67
2023/01/24 14:17:26;;;;;;;;;;;4.50;99.10;;;;;;4991863;28;19928;-66
2023/01/24 14:19:52;;;;;;;;;;;4.40;99.00;;;;;;5009188;28;19917;-66
2023/01/24 14:22:20;;;;;;;;;;;4.50;99.00;;;;;;5009474;28;19951;-66
2023/01/24 14:25:05;;;;;;;;;;;4.40;98.90;;;;;;5009897;28;19936;-67
2023/01/24 14:27:38;;;;;;;;;;;4.40;98.80;;;;;;4992049;28;19913;-67
2023/01/24 14:30:13;;;;;;;;;;;4.40;98.90;;;;;;4992193;28;20028;-67
2023/01/24 14:32:47;;;;;;;;;;;4.40;98.90;;;;;;5001886;28;19913;-67
2023/01/24 14:35:12;;;;;;;;;;;4.40;98.90;;;;;;5009489;28;19917;-66
2023/01/24 14:37:38;;;;;;;;;;;4.40;99.00;;;;;;5009330;28;19914;-67
2023/01/24 14:40:10;;;;;;;;;;;4.40;99.00;;;;;;5004124;28;19914;-67
2023/01/24 14:42:36;;;;;;;;;;;4.40;99.00;;;;;;5000668;28;20745;-66
2023/01/24 14:45:01;;;;;;;;;;;4.40;99.00;;;;;;4988618;28;20008;-67
2023/01/24 14:47:30;;;;;;;;;;;4.40;99.00;;;;;;5000553;28;19910;-66
2023/01/24 14:49:57;;;;;;;;;;;4.30;98.90;;;;;;4991492;28;19917;-67
2023/01/24 14:52:30;;;;;;;;;;;4.30;99.00;;;;;;5009215;28;19925;-67
2023/01/24 14:54:57;;;;;;;;;;;4.30;99.10;;;;;;5009049;28;20410;-67
2023/01/24 14:57:26;;;;;;;;;;;4.30;99.00;;;;;;4991278;28;19999;-67
2023/01/24 14:59:58;;;;;;;;;;;4.30;99.10;;;;;;5008931;28;19917;-66
2023/01/24 15:02:24;;;;;;;;;;;4.30;99.10;;;;;;4991056;28;19923;-67
2023/01/24 15:04:50;;;;;;;;;;;4.30;99.10;;;;;;5007913;28;19996;-67
2023/01/24 15:07:16;;;;;;;;;;;4.30;99.10;;;;;;5008592;28;19913;-67
2023/01/24 15:09:42;;;;;;;;;;;4.30;99.10;;;;;;5008740;28;20581;-66
2023/01/24 15:12:34;;;;;;;;;;;4.20;99.10;;;;;;5008696;28;19909;-67